createdAt,value
2022-12-08T00:02:06.349Z,8.20
2022-12-08T00:07:31.642Z,7.70
2022-12-08T00:12:37.493Z,8.80
2022-12-08T00:17:43.335Z,9.20
2022-12-08T00:22:48.969Z,6.60
2022-12-08T00:27:54.572Z,7.20
2022-12-08T00:33:00.353Z,7.10
2022-12-08T00:38:06.317Z,7.30
2022-12-08T00:43:12.142Z,5.60
2022-12-08T00:48:17.774Z,5.10
2022-12-08T00:53:23.544Z,4.70
2022-12-08T00:58:29.186Z,4.80
2022-12-08T01:03:34.989Z,3.80
2022-12-08T01:08:41.508Z,4.00
2022-12-08T01:13:47.664Z,3.70
2022-12-08T01:18:53.991Z,3.50
2022-12-08T01:24:02.542Z,3.30
2022-12-08T01:29:08.443Z,4.10
2022-12-08T01:34:15.045Z,4.30
2022-12-08T01:39:20.925Z,4.40
2022-12-08T01:46:19.513Z,2.90
2022-12-08T01:51:25.613Z,3.70
2022-12-08T01:56:36.776Z,3.40
2022-12-08T02:01:42.573Z,3.00
2022-12-08T02:06:50.917Z,3.00
2022-12-08T02:11:58.973Z,2.90
2022-12-08T02:17:16.135Z,3.20
2022-12-08T02:22:29.949Z,3.50
2022-12-08T02:27:47.753Z,2.80
2022-12-08T02:33:27.723Z,2.90
2022-12-08T02:38:48.275Z,4.00
2022-12-08T02:44:00.481Z,3.40
2022-12-08T02:49:07.686Z,3.30
2022-12-08T02:54:15.166Z,3.50
2022-12-08T02:59:35.838Z,4.40
2022-12-08T03:04:50.702Z,3.20
2022-12-08T03:10:03.640Z,3.80
2022-12-08T03:15:13.176Z,4.10
2022-12-08T03:20:22.362Z,5.00
2022-12-08T03:25:33.569Z,3.90
2022-12-08T03:30:43.399Z,4.10
2022-12-08T03:35:50.576Z,4.30
2022-12-08T03:41:15.233Z,4.90
2022-12-08T03:51:27.677Z,5.30
2022-12-08T03:56:35.555Z,4.80
2022-12-08T04:01:41.675Z,5.70
2022-12-08T04:06:47.528Z,4.40
2022-12-08T04:11:53.212Z,4.40
2022-12-08T04:16:58.993Z,5.70
2022-12-08T04:22:04.824Z,5.40
2022-12-08T04:27:10.828Z,6.30
2022-12-08T04:32:16.633Z,5.90
2022-12-08T04:37:22.629Z,5.50
2022-12-08T04:42:28.286Z,6.70
2022-12-08T04:47:34.229Z,7.00
2022-12-08T04:52:40.049Z,5.50
2022-12-08T04:57:46.354Z,6.20
2022-12-08T05:02:52.087Z,7.20
2022-12-08T05:07:57.890Z,7.50
2022-12-08T05:13:03.724Z,8.30
2022-12-08T05:18:10.269Z,7.80
2022-12-08T05:23:15.836Z,7.50
2022-12-08T05:28:43.739Z,7.30
2022-12-08T05:33:49.045Z,8.30
2022-12-08T05:38:56.470Z,7.20
2022-12-08T05:44:02.409Z,7.20
2022-12-08T05:49:08.856Z,7.30
2022-12-08T05:54:15.322Z,8.30
2022-12-08T05:59:21.037Z,8.70
2022-12-08T06:04:26.968Z,7.90
2022-12-08T06:09:32.782Z,7.70
2022-12-08T06:14:39.199Z,7.80
2022-12-08T06:19:44.936Z,8.80
2022-12-08T06:24:50.533Z,10.90
2022-12-08T06:29:56.431Z,10.80
2022-12-08T06:35:02.063Z,9.80
2022-12-08T06:40:10.341Z,9.30
2022-12-08T06:45:17.751Z,11.20
2022-12-08T06:50:23.720Z,10.00
2022-12-08T07:00:55.368Z,8.80
2022-12-08T07:06:04.029Z,8.00
2022-12-08T07:11:14.137Z,8.50
2022-12-08T07:16:22.491Z,8.40
2022-12-08T07:21:28.282Z,8.60
2022-12-08T07:26:34.295Z,8.80
2022-12-08T07:31:40.487Z,8.30
2022-12-08T07:36:46.327Z,9.20
2022-12-08T07:41:51.955Z,8.80
2022-12-08T07:46:57.672Z,7.90
2022-12-08T07:52:03.579Z,7.70
2022-12-08T07:57:09.994Z,7.80
2022-12-08T08:02:24.960Z,8.20
2022-12-08T08:07:33.388Z,8.70
2022-12-08T08:12:40.275Z,8.90
2022-12-08T08:17:49.374Z,8.40
2022-12-08T08:22:55.188Z,10.20
2022-12-08T08:28:01.001Z,7.90
2022-12-08T08:33:06.760Z,8.20
2022-12-08T08:38:12.781Z,8.80
2022-12-08T08:43:37.616Z,8.90
2022-12-08T08:48:43.924Z,9.00
2022-12-08T08:53:49.687Z,8.00
2022-12-08T08:58:55.612Z,8.30
2022-12-08T09:04:01.650Z,8.30
2022-12-08T09:09:07.460Z,9.20
2022-12-08T09:14:15.356Z,9.50
2022-12-08T09:19:21.113Z,9.60
2022-12-08T09:24:27.085Z,10.60
2022-12-08T09:29:36.198Z,9.80
2022-12-08T09:34:45.380Z,10.60
2022-12-08T09:39:54.830Z,10.80
2022-12-08T09:45:09.390Z,10.40
2022-12-08T09:50:19.940Z,10.20
2022-12-08T09:55:36.441Z,9.70
2022-12-08T10:00:42.217Z,10.00
2022-12-08T10:06:03.173Z,12.00
2022-12-08T10:11:14.449Z,10.60
2022-12-08T10:21:35.577Z,12.90
2022-12-08T10:26:41.286Z,15.80
2022-12-08T10:31:47.050Z,14.40
2022-12-08T10:36:56.079Z,14.60
2022-12-08T10:42:16.770Z,15.10
2022-12-08T10:47:24.415Z,12.80
2022-12-08T10:52:30.216Z,13.30
2022-12-08T10:57:40.110Z,13.90
2022-12-08T11:03:01.228Z,15.20
2022-12-08T11:13:20.059Z,14.30
2022-12-08T11:18:31.156Z,13.60
2022-12-08T11:23:41.115Z,13.20
2022-12-08T11:28:46.725Z,16.60
2022-12-08T11:33:53.373Z,15.70
2022-12-08T11:39:49.266Z,15.60
2022-12-08T11:45:00.161Z,16.00
2022-12-08T11:50:21.073Z,13.70
2022-12-08T11:55:37.323Z,15.70
2022-12-08T12:00:45.413Z,17.70
2022-12-08T12:06:30.791Z,18.30
2022-12-08T12:12:02.865Z,16.70
2022-12-08T12:17:21.520Z,19.10
2022-12-08T12:22:33.309Z,22.20
2022-12-08T12:27:41.469Z,19.10
2022-12-08T12:32:51.734Z,18.80
2022-12-08T12:38:02.941Z,19.20
2022-12-08T12:43:27.707Z,20.30
2022-12-08T12:48:33.462Z,20.50
2022-12-08T12:53:52.211Z,20.60
2022-12-08T12:59:17.941Z,18.80
2022-12-08T13:04:31.551Z,22.60
2022-12-08T13:09:40.012Z,20.60
2022-12-08T13:14:51.096Z,23.10
2022-12-08T13:19:59.319Z,24.90
2022-12-08T13:25:37.080Z,22.30
2022-12-08T13:30:45.948Z,23.60
2022-12-08T13:36:04.977Z,24.50
2022-12-08T13:41:17.559Z,24.10
2022-12-08T13:57:28.801Z,25.10
2022-12-08T14:02:43.771Z,31.00
2022-12-08T14:07:55.270Z,24.30
2022-12-08T14:13:04.374Z,24.50
2022-12-08T14:18:25.217Z,28.10
2022-12-08T14:28:37.801Z,26.60
2022-12-08T14:33:53.251Z,31.50
2022-12-08T14:39:02.121Z,35.60
2022-12-08T14:44:23.870Z,43.60
2022-12-08T14:49:37.075Z,39.30
2022-12-08T14:54:45.476Z,34.20
2022-12-08T14:59:53.137Z,39.50
2022-12-08T15:05:03.333Z,32.00
2022-12-08T15:10:22.987Z,29.20
2022-12-08T15:15:29.510Z,33.40
2022-12-08T15:20:42.932Z,31.50
2022-12-08T15:25:49.079Z,34.60
2022-12-08T15:30:55.270Z,30.00
2022-12-08T15:36:01.213Z,30.90
2022-12-08T15:41:10.200Z,33.50
2022-12-08T15:46:19.114Z,50.80
2022-12-08T15:51:25.048Z,32.20
2022-12-08T15:56:31.215Z,83.30
2022-12-08T16:01:38.138Z,46.40
2022-12-08T16:13:26.788Z,33.20
2022-12-08T16:18:02.513Z,30.30
2022-12-08T16:23:34.163Z,40.10
2022-12-08T16:34:00.008Z,29.50
2022-12-08T16:39:05.896Z,30.20
2022-12-08T16:44:11.844Z,32.30
2022-12-08T16:49:17.858Z,30.00
2022-12-08T16:54:23.617Z,27.30
2022-12-08T16:59:31.068Z,30.10
2022-12-08T17:04:36.811Z,32.00
2022-12-08T17:09:43.265Z,36.40
2022-12-08T17:14:49.397Z,50.20
2022-12-08T17:19:55.186Z,26.60
2022-12-08T17:25:04.750Z,27.50
2022-12-08T17:30:15.636Z,26.50
2022-12-08T17:35:21.877Z,25.20
2022-12-08T17:40:28.454Z,24.10
2022-12-08T17:45:34.542Z,24.80
2022-12-08T17:50:41.356Z,65.60
2022-12-08T17:55:53.377Z,48.90
2022-12-08T18:00:59.065Z,23.80
2022-12-08T18:06:08.907Z,92.80
2022-12-08T18:11:16.944Z,25.50
2022-12-08T18:16:25.432Z,25.30
2022-12-08T18:21:31.245Z,21.00
2022-12-08T18:26:37.061Z,22.50
2022-12-08T18:31:42.925Z,21.00
2022-12-08T18:36:48.870Z,22.90
2022-12-08T18:41:58.429Z,19.90
2022-12-08T18:47:04.020Z,20.40
2022-12-08T18:52:09.961Z,20.60
2022-12-08T18:57:17.399Z,22.90
2022-12-08T19:02:23.347Z,20.10
2022-12-08T19:07:29.287Z,20.80
2022-12-08T19:12:35.058Z,21.50
2022-12-08T19:17:47.817Z,23.60
2022-12-08T19:22:53.690Z,23.60
2022-12-08T19:28:00.374Z,22.50
2022-12-08T19:33:06.448Z,22.00
2022-12-08T19:38:12.736Z,27.50
2022-12-08T19:43:40.042Z,35.40
2022-12-08T19:48:46.152Z,25.10
2022-12-08T19:53:52.873Z,22.00
2022-12-08T19:58:58.589Z,23.00
2022-12-08T20:04:04.689Z,25.90
2022-12-08T20:09:11.514Z,27.30
2022-12-08T20:14:17.788Z,24.50
2022-12-08T20:19:23.736Z,27.60
2022-12-08T20:24:29.885Z,25.30
2022-12-08T20:29:35.880Z,25.80
2022-12-08T20:34:41.547Z,24.80
2022-12-08T20:39:47.609Z,25.50
2022-12-08T20:44:53.305Z,25.60
2022-12-08T20:49:59.315Z,34.30
2022-12-08T20:55:07.234Z,32.50
2022-12-08T21:00:14.499Z,31.40
2022-12-08T21:05:20.548Z,39.20
2022-12-08T21:10:27.068Z,30.90
2022-12-08T21:15:32.994Z,31.20
2022-12-08T21:20:38.837Z,31.60
2022-12-08T21:25:47.304Z,34.60
2022-12-08T21:30:53.368Z,35.00
2022-12-08T21:36:09.387Z,35.80
2022-12-08T21:41:37.966Z,34.60
2022-12-08T21:46:44.595Z,34.50
2022-12-08T21:51:50.724Z,34.80
2022-12-08T21:56:56.535Z,36.00
2022-12-08T22:02:02.592Z,32.60
2022-12-08T22:07:09.755Z,31.40
2022-12-08T22:12:16.931Z,39.70
2022-12-08T22:17:22.856Z,50.90
2022-12-08T22:22:29.173Z,55.20
2022-12-08T22:27:35.852Z,51.80
2022-12-08T22:32:42.342Z,35.60
2022-12-08T22:37:50.535Z,32.50
2022-12-08T22:42:56.255Z,34.60
2022-12-08T22:48:02.198Z,36.00
2022-12-08T22:53:08.048Z,34.10
2022-12-08T22:58:14.024Z,31.70
2022-12-08T23:03:20.122Z,28.70
2022-12-08T23:08:26.664Z,29.50
2022-12-08T23:13:32.425Z,32.90
2022-12-08T23:18:40.726Z,33.80
2022-12-08T23:23:47.342Z,30.80
2022-12-08T23:28:53.437Z,29.00
2022-12-08T23:33:59.116Z,28.00
2022-12-08T23:39:05.961Z,29.50
2022-12-08T23:44:12.413Z,32.60
2022-12-08T23:49:18.251Z,31.40
2022-12-08T23:54:24.319Z,31.30
2022-12-08T23:59:32.588Z,29.50
